Time;durP1;ratioP1;P1;durP2;ratioP2;P2;SDS_P1;SDS_P2;PMS_P1;PMS_P2;Temp;Humidity;BMP_temperature;BMP_pressure;BME280_temperature;BME280_humidity;BME280_pressure;Samples;Min_cycle;Max_cycle;Signal;HPM_P1;HPM_P2
2023/11/21 00:00:40;;;;;;;16.10;9.90;;;;;;;-1.51;71.56;99321.60;105535;1259;71456;-72
2023/11/21 00:03:08;;;;;;;15.10;10.00;;;;;;;-1.60;71.89;99323.59;105664;1259;60518;-72
2023/11/21 00:05:35;;;;;;;15.50;10.50;;;;;;;-1.65;72.45;99326.19;105749;1259;60364;-70
2023/11/21 00:08:05;;;;;;;17.90;11.10;;;;;;;-1.69;72.48;99327.64;105817;1254;73893;-71
2023/11/21 00:10:33;;;;;;;16.20;11.60;;;;;;;-1.72;72.60;99328.73;105875;1258;70694;-71
2023/11/21 00:13:02;;;;;;;16.70;10.80;;;;;;;-1.78;72.67;99322.35;105718;1256;72729;-73
2023/11/21 00:15:30;;;;;;;18.80;11.00;;;;;;;-1.82;72.69;99325.02;105597;1253;60526;-73
2023/11/21 00:17:57;;;;;;;19.30;11.70;;;;;;;-1.87;72.88;99322.54;105646;1260;60355;-70
2023/11/21 00:20:25;;;;;;;17.80;10.50;;;;;;;-1.81;72.72;99322.70;105623;1260;73988;-70
2023/11/21 00:22:52;;;;;;;14.60;10.20;;;;;;;-1.74;72.83;99324.15;105692;1256;70601;-70
2023/11/21 00:25:20;;;;;;;16.50;11.30;;;;;;;-1.76;72.85;99326.54;105658;1262;72754;-71
2023/11/21 00:27:47;;;;;;;18.00;12.30;;;;;;;-1.81;73.15;99326.00;105764;1260;60651;-69
2023/11/21 00:30:15;;;;;;;18.40;12.10;;;;;;;-1.86;73.38;99322.33;105800;1255;60393;-71
2023/11/21 00:32:43;;;;;;;16.00;11.00;;;;;;;-1.90;73.49;99324.98;105753;1259;73249;-72
2023/11/21 00:35:10;;;;;;;16.10;11.20;;;;;;;-1.93;73.55;99332.16;105748;1262;69926;-73
2023/11/21 00:37:38;;;;;;;20.00;11.90;;;;;;;-1.97;73.61;99335.67;105842;1259;71599;-72
2023/11/21 00:40:07;;;;;;;29.20;18.20;;;;;;;-2.01;73.53;99340.27;105675;1254;60407;-71
2023/11/21 00:42:35;;;;;;;27.40;16.60;;;;;;;-2.06;73.53;99345.48;105804;1253;60441;-71
2023/11/21 00:45:03;;;;;;;33.20;18.50;;;;;;;-2.15;73.59;99347.60;105754;1259;71804;-71
2023/11/21 00:47:30;;;;;;;30.90;15.50;;;;;;;-2.11;73.55;99346.65;105695;1253;69966;-72
2023/11/21 00:49:58;;;;;;;25.70;15.20;;;;;;;-2.00;73.48;99347.69;105706;1259;71436;-73
2023/11/21 00:52:26;;;;;;;20.80;13.00;;;;;;;-2.00;73.63;99343.36;105614;1262;60528;-74
2023/11/21 00:54:53;;;;;;;18.90;12.00;;;;;;;-2.04;73.77;99346.58;105755;1259;60396;-74
2023/11/21 00:57:20;;;;;;;20.80;13.30;;;;;;;-2.09;73.70;99348.77;105698;1259;72845;-72
2023/11/21 00:59:48;;;;;;;21.90;14.20;;;;;;;-2.15;73.95;99349.00;105763;1260;68721;-72
2023/11/21 01:02:15;;;;;;;24.70;14.30;;;;;;;-2.23;74.04;99357.84;105802;1260;70672;-72
2023/11/21 01:04:43;;;;;;;26.90;16.60;;;;;;;-2.29;74.17;99362.35;105850;1254;60522;-71
2023/11/21 01:07:11;;;;;;;23.90;16.00;;;;;;;-2.32;74.48;99355.25;105690;1258;60536;-72
2023/11/21 01:09:38;;;;;;;25.70;17.70;;;;;;;-2.37;74.49;99350.69;105778;1258;71658;-72
2023/11/21 01:12:06;;;;;;;31.10;18.20;;;;;;;-2.43;74.63;99348.98;105660;1260;69971;-72
2023/11/21 01:14:35;;;;;;;27.30;17.60;;;;;;;-2.33;74.62;99346.67;105663;1258;71961;-71
2023/11/21 01:17:04;;;;;;;27.40;17.00;;;;;;;-2.17;74.59;99349.14;105812;1262;60934;-71
2023/11/21 01:19:33;;;;;;;30.40;16.80;;;;;;;-2.13;74.65;99347.34;105892;1253;61218;-71
2023/11/21 01:22:00;;;;;;;27.00;17.40;;;;;;;-2.13;74.75;99353.41;105725;1254;72642;-71
2023/11/21 01:24:28;;;;;;;21.60;15.10;;;;;;;-2.13;74.71;99359.80;105815;1258;69263;-72
2023/11/21 01:26:56;;;;;;;21.40;15.60;;;;;;;-2.14;74.60;99361.61;105708;1268;71369;-72
2023/11/21 01:29:23;;;;;;;23.60;15.20;;;;;;;-2.20;74.49;99356.25;105710;1260;60416;-71
2023/11/21 01:31:51;;;;;;;24.50;16.80;;;;;;;-2.32;74.29;99356.63;105734;1257;60388;-70
2023/11/21 01:34:20;;;;;;;26.00;17.60;;;;;;;-2.44;74.61;99361.03;105534;1256;73844;-70
2023/11/21 01:36:48;;;;;;;25.80;17.10;;;;;;;-2.51;74.95;99363.20;105433;1253;70338;-69
2023/11/21 01:39:16;;;;;;;26.30;15.60;;;;;;;-2.54;75.29;99367.17;105888;1258;71715;-70
2023/11/21 01:41:46;;;;;;;25.60;15.00;;;;;;;-2.41;75.42;99367.95;105785;1254;60514;-72
2023/11/21 01:44:14;;;;;;;20.70;13.60;;;;;;;-2.27;75.03;99372.29;105855;1253;61019;-71
2023/11/21 01:46:41;;;;;;;21.40;13.90;;;;;;;-2.26;75.13;99370.84;105732;1256;73833;-73
2023/11/21 01:49:12;;;;;;;23.60;15.00;;;;;;;-2.29;75.30;99371.02;105608;1261;69114;-70
2023/11/21 01:51:41;;;;;;;21.00;15.20;;;;;;;-2.26;75.72;99375.19;105610;1258;72676;-72
2023/11/21 01:54:09;;;;;;;22.10;13.90;;;;;;;-2.23;75.72;99377.06;105659;1255;60703;-69
2023/11/21 01:56:47;;;;;;;21.60;15.90;;;;;;;-2.20;75.62;99376.39;105699;1254;60459;-73
2023/11/21 01:59:21;;;;;;;22.80;16.10;;;;;;;-2.22;75.46;99376.48;105669;1255;72567;-74
2023/11/21 02:01:50;;;;;;;25.90;14.90;;;;;;;-2.24;75.14;99374.38;105831;1257;69935;-74
2023/11/21 02:04:19;;;;;;;23.50;16.50;;;;;;;-2.28;75.23;99374.61;105679;1259;72756;-73
2023/11/21 02:06:47;;;;;;;22.70;14.70;;;;;;;-2.32;75.23;99375.69;105447;1259;60465;-73
2023/11/21 02:09:15;;;;;;;19.80;14.20;;;;;;;-2.24;75.12;99377.80;105636;1255;60442;-71
2023/11/21 02:11:43;;;;;;;18.80;13.30;;;;;;;-2.12;74.93;99376.22;105094;1259;72643;-70
2023/11/21 02:14:13;;;;;;;17.80;13.10;;;;;;;-2.13;74.93;99378.56;105502;1258;70037;-69
2023/11/21 02:16:41;;;;;;;20.10;13.70;;;;;;;-2.17;75.23;99379.80;105582;1259;73756;-69
2023/11/21 02:19:19;;;;;;;23.50;14.70;;;;;;;-2.19;75.53;99389.66;105645;1265;60589;-71
2023/11/21 02:21:48;;;;;;;24.50;14.80;;;;;;;-2.20;75.74;99392.46;105825;1257;60533;-74
2023/11/21 02:24:17;;;;;;;23.30;14.50;;;;;;;-2.21;75.60;99391.16;105735;1258;72400;-72
2023/11/21 02:26:45;;;;;;;26.80;14.90;;;;;;;-2.27;75.31;99385.31;105534;1254;70802;-73
2023/11/21 02:29:13;;;;;;;19.80;13.90;;;;;;;-2.32;75.58;99385.44;105544;1260;72901;-71
2023/11/21 02:31:47;;;;;;;19.20;13.00;;;;;;;-2.34;75.64;99389.73;105838;1258;61095;-72
2023/11/21 02:34:16;;;;;;;19.30;13.30;;;;;;;-2.25;75.45;99392.80;105828;1259;60441;-73
2023/11/21 02:36:44;;;;;;;19.90;13.80;;;;;;;-2.17;75.19;99392.65;106502;1254;72697;-74
2023/11/21 02:39:13;;;;;;;20.60;15.20;;;;;;;-2.20;75.27;99398.73;105730;1260;70340;-73
2023/11/21 02:41:41;;;;;;;24.90;16.30;;;;;;;-2.25;75.60;99402.84;105821;1258;72430;-72
2023/11/21 02:44:08;;;;;;;26.10;18.00;;;;;;;-2.29;75.60;99405.40;105668;1254;60502;-72
2023/11/21 02:46:36;;;;;;;24.80;17.50;;;;;;;-2.36;75.45;99407.54;105760;1259;60496;-71
2023/11/21 02:49:06;;;;;;;23.40;16.40;;;;;;;-2.48;75.57;99406.21;105831;1254;73868;-72
2023/11/21 02:51:33;;;;;;;24.00;16.80;;;;;;;-2.59;75.89;99410.48;105758;1258;70412;-72
2023/11/21 02:54:02;;;;;;;26.80;17.90;;;;;;;-2.67;75.94;99414.25;105696;1258;71451;-73
2023/11/21 02:56:30;;;;;;;25.10;17.20;;;;;;;-2.77;76.08;99418.67;105692;1259;60489;-72
2023/11/21 02:58:59;;;;;;;26.30;18.60;;;;;;;-2.75;76.17;99420.46;105658;1254;60662;-73
2023/11/21 03:01:27;;;;;;;23.30;16.30;;;;;;;-2.69;76.11;99420.61;105658;1259;74101;-70
2023/11/21 03:03:55;;;;;;;24.50;16.20;;;;;;;-2.74;76.24;99417.99;105649;1259;72153;-70
2023/11/21 03:06:23;;;;;;;20.30;14.70;;;;;;;-2.82;76.72;99419.46;105638;1260;71361;-73
2023/11/21 03:08:51;;;;;;;32.40;20.40;;;;;;;-2.84;77.09;99421.34;105781;1259;60550;-72
2023/11/21 03:11:18;;;;;;;34.10;21.40;;;;;;;-2.85;77.39;99416.55;105816;1259;60480;-71
2023/11/21 03:13:45;;;;;;;27.90;18.30;;;;;;;-2.84;77.44;99416.84;105647;1254;72676;-71
2023/11/21 03:16:15;;;;;;;26.10;17.10;;;;;;;-2.85;77.49;99417.40;105734;1260;68709;-71
2023/11/21 03:18:44;;;;;;;22.80;16.20;;;;;;;-2.86;77.45;99420.25;105885;1255;71330;-73
2023/11/21 03:21:13;;;;;;;23.00;15.10;;;;;;;-2.79;77.08;99413.39;105910;1259;60389;-72
2023/11/21 03:23:41;;;;;;;22.90;14.80;;;;;;;-2.69;76.75;99414.25;105881;1260;60406;-73
2023/11/21 03:26:12;;;;;;;24.10;16.10;;;;;;;-2.69;77.09;99414.73;105560;1254;74130;-74
2023/11/21 03:28:40;;;;;;;22.80;16.40;;;;;;;-2.70;77.16;99411.89;105622;1254;70308;-70
2023/11/21 03:31:08;;;;;;;26.50;17.90;;;;;;;-2.73;77.32;99412.23;105739;1260;75592;-71
2023/11/21 03:33:36;;;;;;;28.70;18.10;;;;;;;-2.75;77.46;99411.80;105920;1254;60549;-71
2023/11/21 03:36:04;;;;;;;25.50;16.80;;;;;;;-2.77;77.26;99416.60;105638;1259;60436;-70
2023/11/21 03:38:31;;;;;;;28.90;18.10;;;;;;;-2.83;77.03;99417.96;105675;1259;73751;-72
2023/11/21 03:40:59;;;;;;;29.20;19.00;;;;;;;-2.91;76.93;99420.08;105519;1261;68972;-70
2023/11/21 03:43:29;;;;;;;30.00;17.30;;;;;;;-3.00;76.98;99421.92;105768;1257;71517;-71
2023/11/21 03:45:56;;;;;;;26.80;15.90;;;;;;;-2.96;76.77;99423.98;105708;1254;60540;-72
2023/11/21 03:48:24;;;;;;;26.20;16.20;;;;;;;-2.89;76.81;99423.56;105677;1254;60352;-73
2023/11/21 03:50:51;;;;;;;25.50;16.80;;;;;;;-2.90;77.12;99424.29;105785;1259;74027;-72
2023/11/21 03:53:19;;;;;;;28.90;19.20;;;;;;;-2.96;77.07;99431.23;105710;1254;70774;-72
2023/11/21 03:55:46;;;;;;;29.20;17.90;;;;;;;-3.05;77.15;99432.95;105743;1254;72675;-72
2023/11/21 03:58:14;;;;;;;25.60;17.70;;;;;;;-3.14;77.44;99437.45;105613;1255;60419;-73
2023/11/21 04:00:41;;;;;;;27.80;19.10;;;;;;;-3.22;77.55;99438.81;105567;1260;60411;-74
2023/11/21 04:03:09;;;;;;;26.20;18.20;;;;;;;-3.33;77.66;99438.38;105877;1259;72665;-73
2023/11/21 04:05:36;;;;;;;29.00;18.20;;;;;;;-3.42;78.00;99448.26;105872;1258;68811;-74
2023/11/21 04:08:04;;;;;;;27.90;18.00;;;;;;;-3.51;78.21;99445.15;105753;1259;71346;-73
2023/11/21 04:10:31;;;;;;;26.50;17.30;;;;;;;-3.47;78.22;99445.58;105656;1254;61696;-73
2023/11/21 04:13:00;;;;;;;28.60;17.20;;;;;;;-3.42;78.09;99446.34;105673;1261;60429;-74
2023/11/21 04:15:27;;;;;;;29.00;17.90;;;;;;;-3.48;78.30;99450.28;105771;1253;72764;-73
2023/11/21 04:17:56;;;;;;;31.10;18.00;;;;;;;-3.58;78.64;99447.94;105680;1257;69204;-72
2023/11/21 04:20:24;;;;;;;27.10;17.50;;;;;;;-3.65;79.17;99444.01;105532;1260;72899;-72
2023/11/21 04:22:51;;;;;;;27.50;17.30;;;;;;;-3.70;79.61;99441.69;105731;1254;61614;-73
2023/11/21 04:25:19;;;;;;;31.70;19.50;;;;;;;-3.71;80.10;99437.77;105759;1259;60422;-73
2023/11/21 04:27:47;;;;;;;29.50;19.00;;;;;;;-3.67;80.37;99440.67;105861;1254;74124;-72
2023/11/21 04:30:14;;;;;;;26.80;17.70;;;;;;;-3.52;80.35;99448.48;105734;1260;70334;-74
2023/11/21 04:32:42;;;;;;;26.60;17.30;;;;;;;-3.35;80.06;99446.67;105716;1254;71429;-75
2023/11/21 04:35:09;;;;;;;27.70;19.00;;;;;;;-3.33;79.82;99442.91;105888;1258;60486;-75
2023/11/21 04:37:37;;;;;;;29.90;18.40;;;;;;;-3.36;79.84;99439.42;105795;1254;60381;-72
2023/11/21 04:40:08;;;;;;;32.30;20.90;;;;;;;-3.36;79.94;99447.73;105689;1253;72590;-73
2023/11/21 04:42:36;;;;;;;32.60;22.30;;;;;;;-3.35;80.04;99456.50;105759;1259;69229;-73
2023/11/21 04:45:11;;;;;;;38.70;23.60;;;;;;;-3.36;79.92;99458.30;105737;1254;71431;-73
2023/11/21 04:47:40;;;;;;;32.00;22.80;;;;;;;-3.41;79.65;99456.83;105852;1254;60468;-73
2023/11/21 04:50:08;;;;;;;46.20;30.20;;;;;;;-3.48;79.48;99459.68;105341;1260;423984;-71
2023/11/21 04:53:34;;;;;;;45.60;29.40;;;;;;;-3.60;79.48;99457.04;102823;1293;601501;-73
2023/11/21 04:56:03;;;;;;;41.00;27.10;;;;;;;-3.57;79.23;99458.26;104974;1269;61009;-74
2023/11/21 04:58:31;;;;;;;39.90;26.90;;;;;;;-3.51;79.05;99458.63;105493;1259;60215;-74
2023/11/21 05:00:58;;;;;;;43.00;29.00;;;;;;;-3.54;79.53;99460.38;105522;1260;72226;-72
2023/11/21 05:03:26;;;;;;;46.30;30.30;;;;;;;-3.58;79.95;99459.70;105420;1259;68869;-73
2023/11/21 05:05:55;;;;;;;42.20;29.60;;;;;;;-3.57;80.36;99461.57;105397;1261;71437;-72
2023/11/21 05:08:23;;;;;;;44.90;29.10;;;;;;;-3.57;80.51;99473.31;105429;1260;204378;-74
2023/11/21 05:10:51;;;;;;;44.40;28.30;;;;;;;-3.56;80.60;99487.25;105481;1262;60012;-74
2023/11/21 05:13:20;;;;;;;43.60;27.50;;;;;;;-3.53;80.88;99494.60;105516;1257;71749;-74
2023/11/21 05:15:48;;;;;;;42.70;26.30;;;;;;;-3.53;80.73;99491.79;105908;1254;69458;-72
2023/11/21 05:18:15;;;;;;;46.10;26.20;;;;;;;-3.44;80.38;99487.46;105804;1258;71393;-73
2023/11/21 05:20:43;;;;;;;42.70;26.10;;;;;;;-3.32;80.22;99484.58;105816;1254;59621;-73
2023/11/21 05:23:10;;;;;;;45.00;26.60;;;;;;;-3.29;80.40;99486.48;105790;1259;59990;-73
2023/11/21 05:25:38;;;;;;;36.00;22.40;;;;;;;-3.30;80.57;99491.38;105868;1259;70547;-75
2023/11/21 05:28:07;;;;;;;36.20;21.20;;;;;;;-3.28;80.75;99510.02;105921;1257;68724;-73
2023/11/21 05:30:35;;;;;;;54.60;36.00;;;;;;;-3.26;81.13;99517.85;105765;1260;71426;-72
2023/11/21 05:33:03;;;;;;;55.90;38.10;;;;;;;-3.24;81.18;99527.27;105688;1260;59608;-73
2023/11/21 05:35:30;;;;;;;63.60;37.90;;;;;;;-3.27;80.84;99525.38;105791;1254;59871;-73
2023/11/21 05:37:58;;;;;;;60.40;34.90;;;;;;;-3.33;80.98;99526.37;105796;1254;72402;-74
2023/11/21 05:40:29;;;;;;;54.10;34.10;;;;;;;-3.23;80.99;99529.40;105769;1254;69157;-74
2023/11/21 05:42:57;;;;;;;59.60;36.40;;;;;;;-3.05;80.89;99528.77;105914;1254;71552;-71
2023/11/21 05:45:24;;;;;;;53.10;33.40;;;;;;;-2.99;80.78;99527.73;105911;1254;59784;-74
2023/11/21 05:47:52;;;;;;;58.50;35.50;;;;;;;-2.99;80.71;99533.09;105855;1254;59528;-73
2023/11/21 05:50:19;;;;;;;60.80;38.40;;;;;;;-3.01;80.66;99531.46;105686;1254;71617;-74
2023/11/21 05:52:47;;;;;;;57.50;37.00;;;;;;;-3.02;80.74;99536.05;105796;1260;68713;-76
2023/11/21 05:55:15;;;;;;;50.90;34.10;;;;;;;-3.02;80.87;99541.92;106009;1259;71395;-74
2023/11/21 05:57:43;;;;;;;50.50;31.40;;;;;;;-3.01;80.92;99543.11;105578;1254;59720;-75
2023/11/21 06:00:21;;;;;;;51.90;32.00;;;;;;;-3.01;80.92;99542.77;105823;1257;59534;-73
2023/11/21 06:02:55;;;;;;;49.10;32.60;;;;;;;-2.86;80.98;99541.04;105962;1254;72983;-80
2023/11/21 06:05:24;;;;;;;41.40;27.20;;;;;;;-2.69;80.75;99542.67;106176;1257;69261;-81
2023/11/21 06:07:54;;;;;;;41.60;26.80;;;;;;;-2.63;81.01;99538.69;105877;1254;72822;-77
2023/11/21 06:10:23;;;;;;;39.70;25.30;;;;;;;-2.56;81.55;99538.81;105960;1254;59672;-79
2023/11/21 06:12:52;;;;;;;38.90;24.80;;;;;;;-2.47;81.81;99536.91;106169;1254;60055;-77
2023/11/21 06:15:22;;;;;;;35.50;24.20;;;;;;;-2.41;81.75;99535.84;106067;1254;71798;-80
2023/11/21 06:17:52;;;;;;;37.00;22.50;;;;;;;-2.37;81.89;99538.41;106066;1254;70413;-78
2023/11/21 06:20:21;;;;;;;39.50;22.90;;;;;;;-2.32;82.06;99536.20;105658;1255;71420;-77
2023/11/21 06:22:50;;;;;;;37.80;23.00;;;;;;;-2.16;82.00;99547.54;105930;1254;60836;-80
2023/11/21 06:25:19;;;;;;;35.30;23.20;;;;;;;-1.99;81.67;99549.27;105905;1256;60157;-78
2023/11/21 06:27:47;;;;;;;38.60;24.90;;;;;;;-1.95;81.54;99544.72;105631;1260;73074;-76
2023/11/21 06:30:15;;;;;;;44.20;27.70;;;;;;;-1.92;81.30;99545.42;105836;1254;70352;-78
2023/11/21 06:32:45;;;;;;;41.00;26.90;;;;;;;-1.92;81.31;99545.79;105839;1254;70699;-77
2023/11/21 06:35:15;;;;;;;53.60;31.50;;;;;;;-1.93;81.20;99550.85;105846;1254;59717;-77
2023/11/21 06:37:48;;;;;;;47.00;29.80;;;;;;;-1.95;81.00;99553.55;105672;1260;59689;-77
2023/11/21 06:40:18;;;;;;;44.80;28.40;;;;;;;-1.93;81.04;99552.79;105901;1259;71500;-77
2023/11/21 06:42:47;;;;;;;45.50;30.00;;;;;;;-1.79;80.98;99556.93;105847;1259;69013;-76
2023/11/21 06:45:15;;;;;;;48.10;30.00;;;;;;;-1.63;80.82;99562.19;105919;1259;73114;-77
2023/11/21 06:47:43;;;;;;;50.00;29.90;;;;;;;-1.55;80.76;99557.22;105665;1257;59740;-79
2023/11/21 06:50:11;;;;;;;47.40;31.30;;;;;;;-1.51;80.60;99555.88;105834;1254;60168;-78
2023/11/21 06:52:39;;;;;;;51.40;30.80;;;;;;;-1.49;80.53;99557.88;105658;1253;71712;-75
2023/11/21 06:55:10;;;;;;;47.10;32.40;;;;;;;-1.50;80.29;99549.09;105908;1253;70258;-77
2023/11/21 06:57:38;;;;;;;49.40;33.20;;;;;;;-1.53;80.29;99545.44;105671;1257;71238;-77
2023/11/21 07:00:08;;;;;;;54.30;32.30;;;;;;;-1.54;80.01;99543.27;105716;1254;59814;-77
2023/11/21 07:02:38;;;;;;;52.60;31.90;;;;;;;-1.44;79.55;99540.49;105727;1254;61448;-78
2023/11/21 07:05:06;;;;;;;60.90;33.90;;;;;;;-1.34;79.47;99545.13;105884;1254;71141;-78
2023/11/21 07:07:35;;;;;;;60.60;36.60;;;;;;;-1.37;79.36;99553.81;106052;1258;70223;-79
2023/11/21 07:10:05;;;;;;;64.50;38.60;;;;;;;-1.39;79.28;99548.22;106855;1254;71308;-79
2023/11/21 07:12:34;;;;;;;73.90;40.60;;;;;;;-1.38;79.39;99549.89;106341;1259;59094;-80
2023/11/21 07:15:05;;;;;;;66.20;40.20;;;;;;;-1.35;79.31;99551.81;106263;1253;59721;-79
2023/11/21 07:17:32;;;;;;;64.30;40.40;;;;;;;-1.36;79.05;99552.36;107327;1253;71560;-79
2023/11/21 07:20:03;;;;;;;64.10;39.50;;;;;;;-1.35;79.05;99553.52;107208;1254;68848;-78
2023/11/21 07:22:31;;;;;;;68.00;38.30;;;;;;;-1.31;79.04;99555.03;106379;1253;71864;-76
2023/11/21 07:24:58;;;;;;;60.80;36.60;;;;;;;-1.16;78.66;99561.16;105950;1257;60853;-79
2023/11/21 07:27:26;;;;;;;62.60;37.10;;;;;;;-0.99;78.37;99554.40;105904;1259;60464;-79
2023/11/21 07:29:53;;;;;;;61.20;37.50;;;;;;;-0.90;78.28;99559.02;105950;1254;71846;-79
2023/11/21 07:32:21;;;;;;;57.80;37.80;;;;;;;-0.87;78.29;99563.33;105911;1253;70708;-79
2023/11/21 07:34:48;;;;;;;58.80;37.40;;;;;;;-0.85;78.20;99568.58;106063;1259;72656;-79
2023/11/21 07:37:16;;;;;;;52.80;33.90;;;;;;;-0.80;78.10;99569.85;106303;1254;59591;-78
2023/11/21 07:39:44;;;;;;;47.50;31.30;;;;;;;-0.77;77.52;99561.66;106013;1254;60566;-79
2023/11/21 07:42:11;;;;;;;58.80;37.20;;;;;;;-0.74;77.33;99556.55;105950;1253;72966;-79
2023/11/21 07:44:39;;;;;;;50.40;28.70;;;;;;;-0.65;77.78;99557.38;106107;1258;69272;-79
2023/11/21 07:47:06;;;;;;;40.50;24.80;;;;;;;-0.42;77.54;99556.90;105955;1259;72669;-79
2023/11/21 07:49:34;;;;;;;40.00;26.80;;;;;;;-0.18;76.98;99560.64;105922;1254;59652;-82
2023/11/21 07:52:02;;;;;;;42.30;27.40;;;;;;;-0.03;76.74;99562.96;105849;1254;60127;-80
2023/11/21 07:54:30;;;;;;;44.50;27.10;;;;;;;0.08;76.30;99561.01;105855;1257;73990;-79
2023/11/21 07:56:57;;;;;;;32.10;24.60;;;;;;;0.16;75.74;99561.63;106340;1253;70307;-80
2023/11/21 07:59:25;;;;;;;34.90;23.20;;;;;;;0.23;75.23;99572.35;106218;1256;71630;-79
2023/11/21 08:01:54;;;;;;;42.20;26.90;;;;;;;0.27;74.91;99575.40;107211;1253;59393;-80
2023/11/21 08:04:22;;;;;;;40.70;26.30;;;;;;;0.28;74.49;99574.29;107399;1259;59633;-79
2023/11/21 08:06:53;;;;;;;41.70;27.90;;;;;;;0.28;74.17;99576.54;107081;1255;73072;-80
2023/11/21 08:09:23;;;;;;;42.40;28.50;;;;;;;0.26;74.07;99578.24;106797;1254;68945;-80
2023/11/21 08:11:52;;;;;;;41.00;25.20;;;;;;;0.26;73.57;99578.06;106470;1254;71463;-79
2023/11/21 08:14:20;;;;;;;35.50;22.90;;;;;;;0.35;73.26;99568.38;105871;1259;59979;-79
2023/11/21 08:16:48;;;;;;;36.40;22.20;;;;;;;0.45;72.96;99572.04;106270;1254;61047;-80
2023/11/21 08:19:16;;;;;;;34.60;21.80;;;;;;;0.47;72.93;99579.39;106139;1254;73125;-79
2023/11/21 08:21:45;;;;;;;31.50;21.10;;;;;;;0.50;72.90;99590.50;106119;1254;70350;-80
2023/11/21 08:24:13;;;;;;;26.90;19.40;;;;;;;0.53;72.43;99595.31;106033;1253;71298;-79
2023/11/21 08:26:40;;;;;;;36.40;22.10;;;;;;;0.52;72.10;99598.35;106068;1259;60159;-79
2023/11/21 08:29:08;;;;;;;29.10;21.10;;;;;;;0.52;72.22;99600.13;106561;1253;59600;-79
2023/11/21 08:31:37;;;;;;;33.70;22.20;;;;;;;0.55;72.31;99598.66;107019;1253;73366;-79
2023/11/21 08:34:05;;;;;;;33.20;21.60;;;;;;;0.60;72.03;99595.03;106662;1254;71162;-78
2023/11/21 08:36:32;;;;;;;34.60;22.30;;;;;;;0.64;71.86;99590.59;106174;1253;75454;-80
2023/11/21 08:39:01;;;;;;;32.10;22.50;;;;;;;0.67;71.94;99589.98;105951;1254;59731;-79
2023/11/21 08:41:30;;;;;;;27.80;19.30;;;;;;;0.68;71.55;99588.15;106051;1254;60203;-80
2023/11/21 08:43:58;;;;;;;33.20;19.90;;;;;;;0.80;71.19;99585.52;106040;1259;71830;-80
2023/11/21 08:46:26;;;;;;;28.80;19.90;;;;;;;0.91;70.92;99587.03;106001;1254;70137;-83
2023/11/21 08:48:54;;;;;;;30.20;19.60;;;;;;;0.93;70.88;99592.13;106399;1254;71708;-80
2023/11/21 08:51:21;;;;;;;27.40;19.30;;;;;;;0.96;70.89;99587.88;106382;1259;59676;-77
2023/11/21 08:53:49;;;;;;;28.60;19.20;;;;;;;0.95;70.32;99587.80;107485;1254;59618;-78
2023/11/21 08:56:16;;;;;;;30.50;20.00;;;;;;;0.92;70.36;99588.04;106092;1253;71818;-82
2023/11/21 08:58:44;;;;;;;29.70;20.20;;;;;;;0.92;70.29;99591.34;105997;1259;69394;-79
2023/11/21 09:01:12;;;;;;;33.80;20.90;;;;;;;0.93;70.26;99592.65;106132;1254;71758;-78
2023/11/21 09:03:40;;;;;;;33.20;19.90;;;;;;;0.94;70.00;99587.34;107392;1253;60278;-79
2023/11/21 09:06:09;;;;;;;28.60;19.90;;;;;;;0.95;69.79;99585.75;107969;1257;59092;-79
2023/11/21 09:08:37;;;;;;;30.80;20.60;;;;;;;0.94;69.56;99585.26;106051;1258;76524;-79
2023/11/21 09:11:05;;;;;;;30.50;19.00;;;;;;;0.93;69.56;99583.44;105901;1259;68712;-77
2023/11/21 09:13:34;;;;;;;28.50;17.90;;;;;;;0.89;69.62;99581.60;105862;1254;72958;-78
2023/11/21 09:16:02;;;;;;;26.00;17.30;;;;;;;0.86;69.37;99582.53;106059;1254;60052;-78
2023/11/21 09:18:30;;;;;;;27.60;17.30;;;;;;;0.85;69.27;99581.90;105832;1254;61111;-79
2023/11/21 09:20:58;;;;;;;21.90;15.60;;;;;;;0.86;69.14;99584.14;105916;1259;73144;-78
2023/11/21 09:23:26;;;;;;;20.90;15.90;;;;;;;0.84;68.90;99590.70;105953;1254;70413;-78
2023/11/21 09:25:56;;;;;;;23.90;16.30;;;;;;;0.90;68.69;99590.95;106162;1254;74543;-80
2023/11/21 09:28:26;;;;;;;26.00;18.10;;;;;;;0.99;68.41;99583.03;106184;1254;60550;-79
2023/11/21 09:30:54;;;;;;;25.90;16.90;;;;;;;0.99;68.47;99584.41;106116;1253;60354;-79
2023/11/21 09:33:24;;;;;;;27.70;18.30;;;;;;;0.96;68.54;99582.01;106229;1253;72591;-79
2023/11/21 09:35:52;;;;;;;29.50;18.40;;;;;;;0.93;68.57;99575.42;105954;1253;71272;-79
2023/11/21 09:38:20;;;;;;;26.00;17.10;;;;;;;0.92;68.83;99580.33;106210;1254;72812;-77
2023/11/21 09:40:47;;;;;;;23.30;17.10;;;;;;;0.95;68.76;99571.45;106125;1254;60821;-76
2023/11/21 09:43:18;;;;;;;24.50;17.10;;;;;;;1.02;68.74;99572.16;106004;1254;60348;-80
2023/11/21 09:45:47;;;;;;;31.40;19.90;;;;;;;1.12;68.55;99576.11;106050;1254;75139;-77
2023/11/21 09:48:16;;;;;;;28.10;18.50;;;;;;;1.20;68.27;99575.73;106362;1254;70902;-80
2023/11/21 09:50:44;;;;;;;32.00;21.70;;;;;;;1.24;68.20;99568.80;106516;1257;71497;-79
2023/11/21 09:53:20;;;;;;;33.20;21.00;;;;;;;1.27;68.35;99561.59;106591;1254;61606;-78
2023/11/21 09:55:52;;;;;;;30.20;20.90;;;;;;;1.34;68.19;99564.40;106352;1254;61117;-80
2023/11/21 09:58:22;;;;;;;34.00;22.70;;;;;;;1.40;68.22;99556.81;106664;1256;74916;-79
2023/11/21 10:00:53;;;;;;;31.70;21.80;;;;;;;1.46;68.15;99554.95;106422;1253;67713;-83
2023/11/21 10:03:21;;;;;;;29.60;20.70;;;;;;;1.50;67.84;99549.27;105880;1257;70634;-79
2023/11/21 10:05:50;;;;;;;32.30;20.30;;;;;;;1.57;67.24;99548.55;106519;1253;61357;-75
2023/11/21 10:08:17;;;;;;;24.60;18.30;;;;;;;1.63;67.21;99550.39;106036;1254;61781;-75
2023/11/21 10:10:47;;;;;;;31.20;21.40;;;;;;;1.60;67.22;99556.17;105966;1257;73856;-75
2023/11/21 10:13:16;;;;;;;35.80;21.90;;;;;;;1.53;67.16;99557.07;106145;1254;71366;-76
2023/11/21 10:15:50;;;;;;;33.00;22.10;;;;;;;1.49;67.34;99554.73;106070;1254;71469;-78
2023/11/21 10:18:18;;;;;;;;;;;;;;;1.47;67.31;99560.33;106070;1256;60578;-77
2023/11/21 10:20:51;;;;;;;29.60;19.70;;;;;;;1.48;67.43;99559.88;106196;1258;60332;-79
2023/11/21 10:23:22;;;;;;;26.40;19.30;;;;;;;1.53;67.14;99558.62;106254;1253;73198;-76
2023/11/21 10:25:59;;;;;;;29.90;19.60;;;;;;;1.54;66.57;99553.81;106263;1253;67984;-77
2023/11/21 10:28:39;;;;;;;33.20;21.80;;;;;;;1.50;66.41;99553.42;106921;1254;73053;-78
2023/11/21 10:31:07;;;;;;;32.60;22.50;;;;;;;1.46;66.41;99564.41;105927;1259;60473;-79
2023/11/21 10:33:35;;;;;;;34.20;22.10;;;;;;;1.35;66.12;99565.56;106022;1253;62159;-82
2023/11/21 10:36:03;;;;;;;33.30;21.50;;;;;;;1.19;66.30;99564.29;106198;1253;75485;-85
2023/11/21 10:38:35;;;;;;;28.90;20.20;;;;;;;1.06;66.65;99566.43;106391;1254;69078;-84
2023/11/21 10:41:07;;;;;;;30.20;21.00;;;;;;;1.00;67.01;99559.92;106266;1258;72764;-80
2023/11/21 10:43:35;;;;;;;31.20;20.70;;;;;;;0.98;67.16;99566.17;106490;1258;60453;-82
2023/11/21 10:46:03;;;;;;;28.80;20.80;;;;;;;1.02;67.28;99567.48;107919;1254;60355;-84
2023/11/21 10:48:34;;;;;;;30.60;21.30;;;;;;;1.04;67.24;99566.58;108674;1253;72601;-82
2023/11/21 10:51:07;;;;;;;32.70;22.10;;;;;;;1.10;67.45;99569.11;107304;1254;68554;-82
2023/11/21 10:53:40;;;;;;;36.70;24.20;;;;;;;1.18;67.59;99565.19;106052;1254;74970;-81
2023/11/21 10:56:10;;;;;;;27.90;20.10;;;;;;;1.26;67.44;99568.66;106272;1254;60588;-82
2023/11/21 10:58:38;;;;;;;28.20;18.60;;;;;;;1.31;66.98;99570.53;106333;1256;61473;-83
2023/11/21 11:01:06;;;;;;;31.80;21.00;;;;;;;1.25;66.53;99570.98;106031;1256;72596;-85
2023/11/21 11:03:33;;;;;;;31.30;22.40;;;;;;;1.16;66.53;99573.61;106124;1254;70427;-86
2023/11/21 11:06:01;;;;;;;28.90;20.90;;;;;;;1.04;66.67;99582.27;106109;1254;72941;-84
2023/11/21 11:08:28;;;;;;;30.70;21.80;;;;;;;0.96;66.97;99588.39;106505;1253;60565;-84
2023/11/21 11:10:58;;;;;;;33.50;22.40;;;;;;;0.97;67.29;99591.67;106266;1253;60985;-83
2023/11/21 11:13:26;;;;;;;30.90;20.40;;;;;;;1.02;67.44;99597.41;106521;1259;74391;-83
2023/11/21 11:16:10;;;;;;;30.40;21.10;;;;;;;1.05;67.41;99597.17;106093;1259;68919;-82
2023/11/21 11:18:38;;;;;;;29.00;20.50;;;;;;;1.06;67.41;99588.30;106335;1254;70747;-83